Time;durP1;ratioP1;P1;durP2;ratioP2;P2;SDS_P1;SDS_P2;PMS_P1;PMS_P2;Temp;Humidity;BMP_temperature;BMP_pressure;BME280_temperature;BME280_humidity;BME280_pressure;Samples;Min_cycle;Max_cycle;Signal;HPM_P1;HPM_P2
2022/03/26 00:01:03;;;;;;;4.82;2.00;;;19.60;99.90;;;;;;5009695;28;20397;-87
2022/03/26 00:03:30;;;;;;;7.32;2.13;;;19.70;99.90;;;;;;5029807;28;20535;-82
2022/03/26 00:05:57;;;;;;;3.05;1.90;;;19.80;99.90;;;;;;5032371;28;20392;-84
2022/03/26 00:08:24;;;;;;;7.50;2.05;;;19.80;99.90;;;;;;5030789;28;20395;-90
2022/03/26 00:10:51;;;;;;;4.07;1.90;;;19.80;99.90;;;;;;5038332;28;20396;-86
2022/03/26 00:13:20;;;;;;;4.55;2.25;;;19.90;99.90;;;;;;5028178;28;20473;-89
2022/03/26 00:15:47;;;;;;;4.30;2.55;;;20.00;99.90;;;;;;4988974;28;20388;-86
2022/03/26 00:18:17;;;;;;;3.45;1.50;;;20.20;99.90;;;;;;4992719;28;20424;-81
2022/03/26 00:20:45;;;;;;;4.30;1.50;;;20.20;99.90;;;;;;4992120;28;20440;-90
2022/03/26 00:23:12;;;;;;;3.88;2.63;;;20.10;99.90;;;;;;4985804;28;20411;-86
2022/03/26 00:25:39;;;;;;;4.65;2.20;;;20.10;99.90;;;;;;4986052;28;20911;-86
2022/03/26 00:28:06;;;;;;;4.10;1.90;;;20.30;99.90;;;;;;4986393;28;20396;-89
2022/03/26 00:30:34;;;;;;;2.50;1.60;;;20.50;99.90;;;;;;4985389;28;20392;-88
2022/03/26 00:33:01;;;;;;;3.38;1.90;;;20.60;99.90;;;;;;4985212;28;20496;-87
2022/03/26 00:35:28;;;;;;;4.47;1.60;;;20.70;99.90;;;;;;4985960;28;20451;-87
2022/03/26 00:37:55;;;;;;;3.70;1.63;;;20.80;99.90;;;;;;4985543;28;20832;-85
2022/03/26 00:40:22;;;;;;;4.28;1.90;;;20.90;99.90;;;;;;4985024;28;20471;-86
2022/03/26 00:42:49;;;;;;;4.43;1.87;;;20.90;99.90;;;;;;4985219;28;20412;-88
2022/03/26 00:45:16;;;;;;;3.38;1.73;;;20.80;99.90;;;;;;4983813;28;21035;-87
2022/03/26 00:47:43;;;;;;;4.40;1.70;;;20.90;99.90;;;;;;4980220;28;20393;-85
2022/03/26 00:50:13;;;;;;;4.27;1.57;;;20.90;99.90;;;;;;4986638;28;20479;-92
2022/03/26 00:52:40;;;;;;;3.95;1.42;;;21.00;99.90;;;;;;4996994;28;20550;-83
2022/03/26 00:55:08;;;;;;;3.95;1.60;;;21.10;99.90;;;;;;5027722;28;20454;-85
2022/03/26 00:57:36;;;;;;;3.60;1.50;;;21.20;99.90;;;;;;5028002;28;20385;-86
2022/03/26 01:00:05;;;;;;;6.40;1.52;;;21.20;99.90;;;;;;5026268;28;20389;-90
2022/03/26 01:02:32;;;;;;;7.15;1.50;;;21.20;99.90;;;;;;5027670;28;20405;-85
2022/03/26 01:05:00;;;;;;;4.25;1.50;;;21.20;99.90;;;;;;5026902;28;20877;-84
2022/03/26 01:07:27;;;;;;;4.17;1.50;;;21.20;99.90;;;;;;5025955;28;20388;-90
2022/03/26 01:09:58;;;;;;;2.78;1.50;;;21.30;99.90;;;;;;5029504;28;20472;-85
2022/03/26 01:12:26;;;;;;;5.73;1.67;;;21.20;99.90;;;;;;5029789;28;20466;-88
2022/03/26 01:14:53;;;;;;;4.83;1.60;;;21.00;99.90;;;;;;5030222;28;20401;-85
2022/03/26 01:17:21;;;;;;;5.78;1.88;;;20.60;99.90;;;;;;5030995;28;20809;-89
2022/03/26 01:19:49;;;;;;;6.30;1.90;;;20.40;99.90;;;;;;5031952;28;20381;-88
2022/03/26 01:22:16;;;;;;;4.50;1.73;;;20.10;99.90;;;;;;5031543;28;20421;-86
2022/03/26 01:24:43;;;;;;;5.63;1.90;;;19.80;99.90;;;;;;5013625;28;20473;-90
2022/03/26 01:27:10;;;;;;;6.13;1.73;;;19.70;99.90;;;;;;5034686;28;20391;-93
2022/03/26 01:29:38;;;;;;;5.75;1.70;;;19.60;99.90;;;;;;5030745;28;20949;-88
2022/03/26 01:32:10;;;;;;;4.32;1.80;;;19.60;99.90;;;;;;5030983;28;20401;-93
2022/03/26 01:34:42;;;;;;;7.03;2.17;;;19.60;99.90;;;;;;5030843;28;20382;-84
2022/03/26 01:37:09;;;;;;;5.32;1.80;;;19.40;99.90;;;;;;5020224;28;20396;-89
2022/03/26 01:39:41;;;;;;;3.65;1.85;;;19.60;99.90;;;;;;5039335;28;20381;-84
2022/03/26 01:42:11;;;;;;;4.90;1.90;;;19.60;99.90;;;;;;5037136;28;20405;-84
2022/03/26 01:44:41;;;;;;;4.35;1.70;;;19.70;99.90;;;;;;5038144;28;20389;-86
2022/03/26 01:47:14;;;;;;;5.00;1.70;;;19.60;99.90;;;;;;5039078;28;20393;-84
2022/03/26 01:49:50;;;;;;;5.82;2.00;;;19.50;99.90;;;;;;5028851;28;20369;-83
2022/03/26 01:52:21;;;;;;;5.40;2.10;;;19.50;99.90;;;;;;5016697;28;20397;-84
2022/03/26 01:54:48;;;;;;;5.73;1.73;;;19.50;99.90;;;;;;5048399;28;20416;-96
2022/03/26 01:57:19;;;;;;;4.40;1.70;;;19.30;99.90;;;;;;5023755;28;20407;-84
2022/03/26 01:59:46;;;;;;;4.45;1.73;;;19.30;99.90;;;;;;5026312;28;20373;-83
2022/03/26 02:02:20;;;;;;;3.08;1.65;;;19.20;99.90;;;;;;5027620;28;20357;-84
2022/03/26 02:04:58;;;;;;;5.03;1.80;;;19.10;99.90;;;;;;5047842;28;20440;-84
2022/03/26 02:07:27;;;;;;;7.83;1.90;;;19.10;99.90;;;;;;5060666;28;20377;-87
2022/03/26 02:09:54;;;;;;;5.20;1.98;;;19.20;99.90;;;;;;5017874;28;20386;-82
2022/03/26 02:12:26;;;;;;;6.00;2.53;;;19.00;99.90;;;;;;5018292;28;20406;-90
2022/03/26 02:14:55;;;;;;;7.05;2.47;;;19.00;99.90;;;;;;5016690;28;20930;-90
2022/03/26 02:17:22;;;;;;;6.13;2.20;;;18.80;99.90;;;;;;5016936;28;20391;-84
2022/03/26 02:19:53;;;;;;;7.75;2.70;;;18.70;99.90;;;;;;5018121;28;20408;-93
2022/03/26 02:22:25;;;;;;;4.47;2.22;;;18.80;99.90;;;;;;5016265;28;20397;-88
2022/03/26 02:24:55;;;;;;;4.43;2.58;;;18.70;99.90;;;;;;5021071;28;20367;-86
2022/03/26 02:27:27;;;;;;;5.53;2.20;;;18.80;99.90;;;;;;5021542;28;20402;-86
2022/03/26 02:29:59;;;;;;;5.95;2.17;;;18.70;99.90;;;;;;5021073;28;20437;-82
2022/03/26 02:32:39;;;;;;;5.68;2.47;;;18.70;99.90;;;;;;5017005;28;20387;-83
2022/03/26 02:35:07;;;;;;;5.35;2.40;;;18.70;99.90;;;;;;5021245;28;20382;-85
2022/03/26 02:37:35;;;;;;;5.65;2.63;;;18.80;99.90;;;;;;5022188;28;20376;-85
2022/03/26 02:40:07;;;;;;;3.13;1.70;;;18.80;99.90;;;;;;5017099;28;20379;-84
2022/03/26 02:42:35;;;;;;;5.60;2.20;;;18.80;99.90;;;;;;4992784;28;20536;-85
2022/03/26 02:45:03;;;;;;;3.53;1.90;;;18.80;99.90;;;;;;5009428;28;20386;-93
2022/03/26 02:47:30;;;;;;;4.20;2.20;;;18.70;99.90;;;;;;4992008;28;20411;-93
2022/03/26 02:49:57;;;;;;;6.43;2.20;;;18.60;99.90;;;;;;4995065;28;20485;-91
2022/03/26 02:52:24;;;;;;;5.97;2.30;;;18.70;99.90;;;;;;4989580;28;20405;-91
2022/03/26 02:54:52;;;;;;;4.07;2.78;;;18.70;99.90;;;;;;4986043;28;20793;-92
2022/03/26 02:57:19;;;;;;;5.85;2.85;;;18.70;99.90;;;;;;4992781;28;20405;-88
2022/03/26 02:59:46;;;;;;;5.28;2.75;;;18.60;99.90;;;;;;4991073;28;20417;-84
2022/03/26 03:02:15;;;;;;;5.57;3.00;;;18.60;99.90;;;;;;4993020;28;20397;-86
2022/03/26 03:04:43;;;;;;;4.43;2.40;;;18.50;99.90;;;;;;4991295;28;20403;-87
2022/03/26 03:07:10;;;;;;;4.35;2.33;;;18.50;99.90;;;;;;5000254;28;20391;-84
2022/03/26 03:09:37;;;;;;;5.13;2.25;;;18.50;99.90;;;;;;4994377;28;20388;-85
2022/03/26 03:12:04;;;;;;;5.13;3.20;;;18.60;99.90;;;;;;5011540;28;20407;-84
2022/03/26 03:14:32;;;;;;;6.73;4.23;;;18.60;99.90;;;;;;5007479;28;20393;-86
2022/03/26 03:17:02;;;;;;;7.80;4.50;;;18.60;99.90;;;;;;5001637;28;20393;-93
2022/03/26 03:19:29;;;;;;;8.85;5.97;;;18.60;99.90;;;;;;5025499;28;20382;-83
2022/03/26 03:22:02;;;;;;;9.27;6.97;;;18.70;99.90;;;;;;5036370;28;20376;-95
2022/03/26 03:24:29;;;;;;;12.23;7.78;;;18.80;99.90;;;;;;5010604;28;20385;-83
2022/03/26 03:27:05;;;;;;;8.35;6.00;;;18.90;99.90;;;;;;5030862;28;20378;-94
2022/03/26 03:29:32;;;;;;;9.27;6.57;;;19.10;99.90;;;;;;5017875;28;20451;-88
2022/03/26 03:32:00;;;;;;;9.00;4.60;;;19.00;99.90;;;;;;5028921;28;20954;-87
2022/03/26 03:34:27;;;;;;;5.68;2.95;;;19.30;99.90;;;;;;5029634;28;20575;-85
2022/03/26 03:36:54;;;;;;;5.55;2.50;;;19.60;99.90;;;;;;5031365;28;20389;-96
2022/03/26 03:39:23;;;;;;;4.22;2.70;;;19.80;99.90;;;;;;5030358;28;20380;-83
2022/03/26 03:41:53;;;;;;;4.78;2.55;;;20.20;99.90;;;;;;5040679;28;20399;-83
2022/03/26 03:44:21;;;;;;;4.78;3.15;;;20.50;99.90;;;;;;5037487;28;20388;-94
2022/03/26 03:46:48;;;;;;;5.00;2.30;;;20.50;99.90;;;;;;5030921;28;20445;-88
2022/03/26 03:49:22;;;;;;;3.67;2.20;;;20.50;99.90;;;;;;5032408;28;20377;-88
2022/03/26 03:51:53;;;;;;;4.85;2.30;;;20.30;99.90;;;;;;5042195;28;20488;-83
2022/03/26 03:54:28;;;;;;;4.80;2.42;;;20.30;99.90;;;;;;5044480;28;20381;-85
2022/03/26 03:56:56;;;;;;;5.22;2.60;;;20.20;99.90;;;;;;5041576;28;20469;-84
2022/03/26 03:59:26;;;;;;;4.90;2.40;;;20.00;99.90;;;;;;5035201;28;20393;-84
2022/03/26 04:02:02;;;;;;;4.65;2.80;;;19.70;99.90;;;;;;5039859;28;20443;-83
2022/03/26 04:04:29;;;;;;;6.13;2.85;;;19.50;99.90;;;;;;5042641;28;20399;-84
2022/03/26 04:06:56;;;;;;;5.97;2.72;;;19.50;99.90;;;;;;5042446;28;20424;-85
2022/03/26 04:09:24;;;;;;;6.85;2.97;;;19.50;99.90;;;;;;5038275;28;20385;-84
2022/03/26 04:11:54;;;;;;;5.47;2.90;;;19.50;99.90;;;;;;5039191;28;20470;-85
2022/03/26 04:14:34;;;;;;;6.00;3.33;;;19.50;99.90;;;;;;5045411;28;20398;-83
2022/03/26 04:17:05;;;;;;;7.70;3.10;;;19.60;99.90;;;;;;5036022;28;20389;-96
2022/03/26 04:19:33;;;;;;;4.30;2.90;;;19.60;99.90;;;;;;5037360;28;20469;-84
2022/03/26 04:22:13;;;;;;;6.03;2.72;;;19.60;99.90;;;;;;5023626;28;20383;-84
2022/03/26 04:24:48;;;;;;;7.22;3.13;;;19.70;99.90;;;;;;4971177;28;20455;-93
2022/03/26 04:27:18;;;;;;;7.22;2.85;;;19.70;99.90;;;;;;5031954;28;20396;-95
2022/03/26 04:29:44;;;;;;;4.25;2.67;;;19.80;99.90;;;;;;5034604;28;20749;-96
2022/03/26 04:32:11;;;;;;;3.70;2.83;;;19.90;99.90;;;;;;5024451;28;20756;-87
2022/03/26 04:34:39;;;;;;;4.55;2.53;;;19.80;99.90;;;;;;5028244;28;20381;-90
2022/03/26 04:37:07;;;;;;;4.97;2.95;;;19.90;99.90;;;;;;5029412;28;20405;-86
2022/03/26 04:39:35;;;;;;;7.13;2.78;;;19.90;99.90;;;;;;5033204;28;20381;-90
2022/03/26 04:42:05;;;;;;;7.25;3.42;;;19.80;99.90;;;;;;5032499;28;20385;-84
2022/03/26 04:44:32;;;;;;;6.90;3.28;;;19.80;99.90;;;;;;5020574;28;20507;-92
2022/03/26 04:46:59;;;;;;;5.93;2.90;;;19.80;99.90;;;;;;5032159;28;20697;-92
2022/03/26 04:49:26;;;;;;;6.18;2.83;;;19.70;99.90;;;;;;5036153;28;20413;-89
2022/03/26 04:51:53;;;;;;;7.60;3.20;;;19.60;99.90;;;;;;5033921;28;20772;-87
2022/03/26 04:54:20;;;;;;;5.55;2.45;;;19.50;99.90;;;;;;5015496;28;20951;-84
2022/03/26 04:56:48;;;;;;;6.05;2.45;;;19.50;99.90;;;;;;5035962;28;20378;-93
2022/03/26 04:59:14;;;;;;;5.97;2.38;;;19.30;99.90;;;;;;5016913;28;20442;-87
2022/03/26 05:01:44;;;;;;;5.18;1.90;;;19.20;99.90;;;;;;5016056;28;20387;-83
2022/03/26 05:04:11;;;;;;;3.10;1.83;;;19.10;99.90;;;;;;5029803;28;20512;-84
2022/03/26 05:06:38;;;;;;;4.35;2.00;;;19.00;99.90;;;;;;5034601;28;20381;-85
2022/03/26 05:09:08;;;;;;;3.58;1.75;;;18.90;99.90;;;;;;5032426;28;20450;-93
2022/03/26 05:11:37;;;;;;;4.70;1.67;;;18.90;99.90;;;;;;5035847;28;20381;-85
2022/03/26 05:14:04;;;;;;;3.95;1.60;;;18.90;99.90;;;;;;5021409;28;20393;-86
2022/03/26 05:16:31;;;;;;;4.90;1.73;;;18.90;99.90;;;;;;5030168;28;20396;-88
2022/03/26 05:18:59;;;;;;;3.33;1.60;;;18.90;99.90;;;;;;5030145;28;20389;-83
2022/03/26 05:21:26;;;;;;;3.92;1.73;;;18.90;99.90;;;;;;5030463;28;20395;-86
2022/03/26 05:23:53;;;;;;;3.50;1.88;;;18.70;99.90;;;;;;5030201;28;20382;-81
2022/03/26 05:26:22;;;;;;;3.00;1.90;;;18.60;99.90;;;;;;5030694;28;20951;-87
2022/03/26 05:28:50;;;;;;;4.35;1.80;;;18.60;99.90;;;;;;5030121;28;20559;-83
2022/03/26 05:31:18;;;;;;;7.82;1.83;;;18.50;99.90;;;;;;5030028;28;20462;-86
2022/03/26 05:33:45;;;;;;;3.63;1.80;;;18.50;99.90;;;;;;5029983;28;20409;-86
2022/03/26 05:36:12;;;;;;;4.03;1.90;;;18.60;99.90;;;;;;5030407;28;20385;-84
2022/03/26 05:38:38;;;;;;;3.13;1.47;;;18.60;99.90;;;;;;5029198;28;20486;-83
2022/03/26 05:41:05;;;;;;;3.92;1.52;;;18.70;99.90;;;;;;5030046;28;20374;-87
2022/03/26 05:43:32;;;;;;;2.60;1.58;;;18.70;99.90;;;;;;5029774;28;20401;-84
2022/03/26 05:46:03;;;;;;;4.07;1.55;;;18.70;99.90;;;;;;5029812;28;20372;-86
2022/03/26 05:48:30;;;;;;;3.93;1.30;;;18.70;99.90;;;;;;5030777;28;20448;-80
2022/03/26 05:50:57;;;;;;;3.00;1.40;;;18.70;99.90;;;;;;5030042;28;20423;-82
2022/03/26 05:53:24;;;;;;;3.50;1.88;;;18.70;99.90;;;;;;5030765;28;20402;-86
2022/03/26 05:55:52;;;;;;;4.78;3.03;;;18.70;99.90;;;;;;5029255;28;20384;-87
2022/03/26 05:58:20;;;;;;;9.52;5.70;;;18.80;99.90;;;;;;5014084;28;20436;-87
2022/03/26 06:00:48;;;;;;;7.25;4.63;;;18.80;99.90;;;;;;5035460;28;20801;-87
2022/03/26 06:03:17;;;;;;;4.82;2.90;;;18.70;99.90;;;;;;5033802;28;20443;-90
2022/03/26 06:05:44;;;;;;;4.45;1.95;;;18.60;99.90;;;;;;5031494;28;20458;-81
2022/03/26 06:08:11;;;;;;;4.55;2.03;;;18.70;99.90;;;;;;5036802;28;20510;-87
2022/03/26 06:10:38;;;;;;;2.75;1.73;;;18.70;99.90;;;;;;5034929;28;20385;-86
2022/03/26 06:13:08;;;;;;;5.50;1.80;;;18.70;99.90;;;;;;5030697;28;20401;-90
2022/03/26 06:15:36;;;;;;;3.88;1.80;;;18.70;99.90;;;;;;5030667;28;20385;-89
2022/03/26 06:18:03;;;;;;;3.90;1.85;;;18.70;99.90;;;;;;5029776;28;20378;-85
2022/03/26 06:20:31;;;;;;;6.63;2.13;;;18.70;99.90;;;;;;5013002;28;20385;-92
2022/03/26 06:22:59;;;;;;;5.13;2.10;;;18.70;99.90;;;;;;5029782;28;20385;-89
2022/03/26 06:25:26;;;;;;;5.43;2.20;;;18.70;99.90;;;;;;5029114;28;20392;-90
2022/03/26 06:27:53;;;;;;;6.53;2.22;;;18.70;99.90;;;;;;5027965;28;20404;-88
2022/03/26 06:30:20;;;;;;;4.78;2.03;;;18.70;99.90;;;;;;5028525;28;20964;-87
2022/03/26 06:32:47;;;;;;;5.95;2.22;;;18.70;99.90;;;;;;5029422;28;20471;-89
2022/03/26 06:35:14;;;;;;;4.80;1.92;;;18.80;99.90;;;;;;5036057;28;20400;-86
2022/03/26 06:37:42;;;;;;;8.57;2.20;;;18.90;99.90;;;;;;5013769;28;20388;-86
2022/03/26 06:40:09;;;;;;;6.78;2.00;;;18.90;99.90;;;;;;5030207;28;20476;-87
2022/03/26 06:42:36;;;;;;;8.48;2.33;;;18.90;99.90;;;;;;5028482;28;20408;-84
2022/03/26 06:45:05;;;;;;;9.38;3.35;;;18.80;99.90;;;;;;5030587;28;20420;-85
2022/03/26 06:47:40;;;;;;;10.90;5.13;;;18.90;99.90;;;;;;5031883;28;20366;-85
2022/03/26 06:50:07;;;;;;;12.30;6.10;;;18.90;99.90;;;;;;5013931;28;20408;-86
2022/03/26 06:52:35;;;;;;;9.10;5.13;;;18.90;99.90;;;;;;5015180;28;20812;-85
2022/03/26 06:55:04;;;;;;;10.15;5.60;;;18.90;99.90;;;;;;5031953;28;20389;-85
2022/03/26 06:57:31;;;;;;;9.38;4.50;;;18.90;99.90;;;;;;5035189;28;20445;-84
2022/03/26 06:59:59;;;;;;;8.70;4.38;;;18.90;99.90;;;;;;5036490;28;20952;-84
2022/03/26 07:02:27;;;;;;;5.63;2.28;;;18.80;99.90;;;;;;5018907;28;20881;-83
2022/03/26 07:04:54;;;;;;;6.10;2.17;;;18.80;99.90;;;;;;5034462;28;20384;-85
2022/03/26 07:07:25;;;;;;;5.25;2.13;;;18.80;99.90;;;;;;5034814;28;20381;-88
2022/03/26 07:09:52;;;;;;;5.97;2.25;;;18.70;99.90;;;;;;5034873;28;20385;-82
2022/03/26 07:12:29;;;;;;;5.97;3.20;;;18.70;99.90;;;;;;5047446;28;20486;-84
2022/03/26 07:15:00;;;;;;;5.90;2.42;;;18.60;99.90;;;;;;5045058;28;20451;-85
2022/03/26 07:17:27;;;;;;;8.70;4.38;;;18.60;99.90;;;;;;5035483;28;20366;-87
2022/03/26 07:20:03;;;;;;;7.35;3.25;;;18.50;99.90;;;;;;5038273;28;20894;-84
2022/03/26 07:22:32;;;;;;;6.70;3.03;;;18.50;99.90;;;;;;5041012;28;20416;-89
2022/03/26 07:25:01;;;;;;;5.50;2.28;;;18.40;99.90;;;;;;4995396;28;20396;-90
2022/03/26 07:27:36;;;;;;;4.07;1.77;;;18.40;99.90;;;;;;4996651;28;20388;-84
2022/03/26 07:30:08;;;;;;;4.93;1.77;;;18.30;99.90;;;;;;5002585;28;20388;-85
2022/03/26 07:32:37;;;;;;;5.15;1.80;;;18.20;99.90;;;;;;4999487;28;20412;-92
2022/03/26 07:35:05;;;;;;;6.22;1.67;;;18.20;99.90;;;;;;4995354;28;20466;-83
2022/03/26 07:37:32;;;;;;;5.15;1.52;;;18.10;99.90;;;;;;4991136;28;20439;-83
2022/03/26 07:40:00;;;;;;;5.20;1.75;;;18.10;99.90;;;;;;4994004;28;20384;-86
2022/03/26 07:42:29;;;;;;;4.82;1.77;;;18.10;99.90;;;;;;4999372;28;20487;-89
2022/03/26 07:44:56;;;;;;;4.47;1.85;;;18.10;99.90;;;;;;4991684;28;20389;-90
2022/03/26 07:47:23;;;;;;;4.88;1.65;;;18.10;99.90;;;;;;4991280;28;20488;-89
2022/03/26 07:49:55;;;;;;;4.10;1.70;;;18.10;99.90;;;;;;4999251;28;20493;-82
2022/03/26 07:52:22;;;;;;;5.43;1.80;;;18.00;99.90;;;;;;4990126;28;20435;-86
2022/03/26 07:54:49;;;;;;;5.55;1.75;;;18.00;99.90;;;;;;4988702;28;20397;-88
2022/03/26 07:57:16;;;;;;;6.78;1.70;;;18.00;99.90;;;;;;4988176;28;20896;-86
2022/03/26 07:59:47;;;;;;;4.70;1.80;;;18.00;99.90;;;;;;4988137;28;20517;-91
2022/03/26 08:02:14;;;;;;;5.65;2.00;;;18.00;99.90;;;;;;4992066;28;20460;-87
2022/03/26 08:04:41;;;;;;;7.53;2.60;;;18.00;99.90;;;;;;4992234;28;20393;-88
2022/03/26 08:07:08;;;;;;;5.60;2.78;;;18.00;99.90;;;;;;4976838;28;20381;-89
2022/03/26 08:09:35;;;;;;;5.93;2.30;;;18.00;99.90;;;;;;4988830;28;20393;-90
2022/03/26 08:12:03;;;;;;;7.67;2.23;;;17.90;99.90;;;;;;4989807;28;20401;-85
2022/03/26 08:14:33;;;;;;;7.10;2.05;;;17.90;99.90;;;;;;4998147;28;20393;-92
2022/03/26 08:17:01;;;;;;;6.50;1.80;;;17.90;99.90;;;;;;5035500;28;20410;-86
2022/03/26 08:19:28;;;;;;;5.20;1.90;;;17.90;99.90;;;;;;5032920;28;20378;-89
2022/03/26 08:21:56;;;;;;;6.32;1.90;;;17.90;99.90;;;;;;5030934;28;20460;-88
2022/03/26 08:24:37;;;;;;;5.07;1.70;;;17.80;99.90;;;;;;5022952;28;20453;-83
2022/03/26 08:27:07;;;;;;;4.00;1.70;;;17.90;99.90;;;;;;5054924;28;20377;-86
2022/03/26 08:29:37;;;;;;;4.68;1.80;;;17.90;99.90;;;;;;5039067;28;20366;-85
2022/03/26 08:32:17;;;;;;;4.57;1.70;;;17.90;99.90;;;;;;5038171;28;20469;-83
2022/03/26 08:34:49;;;;;;;4.60;1.70;;;17.90;99.90;;;;;;5022990;28;20401;-81
2022/03/26 08:37:17;;;;;;;5.07;1.50;;;17.90;99.90;;;;;;5042806;28;20381;-94
2022/03/26 08:39:47;;;;;;;3.67;1.50;;;17.90;99.90;;;;;;5038210;28;20389;-86
2022/03/26 08:42:17;;;;;;;5.00;1.50;;;17.90;99.90;;;;;;5038258;28;20389;-85
2022/03/26 08:44:49;;;;;;;4.57;1.65;;;17.90;99.90;;;;;;5041834;28;20397;-89
2022/03/26 08:47:17;;;;;;;6.10;1.83;;;17.90;99.90;;;;;;5025627;28;20393;-89
2022/03/26 08:49:52;;;;;;;4.78;1.83;;;17.90;99.90;;;;;;5028883;28;20373;-83
2022/03/26 08:52:47;;;;;;;8.88;3.20;;;17.90;99.90;;;;;;5027818;28;20409;-88
2022/03/26 08:55:18;;;;;;;8.05;3.60;;;17.80;99.90;;;;;;5013426;28;20394;-95
2022/03/26 08:57:59;;;;;;;7.10;3.30;;;17.80;99.90;;;;;;5046508;28;20401;-85
2022/03/26 09:00:55;;;;;;;4.80;2.10;;;17.80;99.90;;;;;;5029903;28;20385;-87
2022/03/26 09:03:24;;;;;;;3.85;1.60;;;17.80;99.90;;;;;;5044115;28;20369;-86
2022/03/26 09:05:54;;;;;;;4.60;1.70;;;17.70;99.90;;;;;;5046876;28;20381;-87
2022/03/26 09:08:26;;;;;;;4.30;1.55;;;17.60;99.90;;;;;;5041895;28;20439;-89
2022/03/26 09:10:56;;;;;;;4.97;1.60;;;17.60;99.90;;;;;;5019999;28;20411;-87
2022/03/26 09:13:24;;;;;;;3.78;1.52;;;17.70;99.90;;;;;;5033850;28;20413;-91
2022/03/26 09:15:50;;;;;;;3.42;1.50;;;17.70;99.90;;;;;;5037274;28;20378;-85
2022/03/26 09:18:17;;;;;;;6.28;1.83;;;17.70;99.90;;;;;;5020352;28;20390;-89
2022/03/26 09:20:46;;;;;;;4.68;1.45;;;17.70;99.90;;;;;;5037820;28;20377;-84
2022/03/26 09:23:14;;;;;;;3.65;1.38;;;17.70;99.90;;;;;;5018100;28;20385;-86
2022/03/26 09:25:43;;;;;;;4.65;1.30;;;17.70;99.90;;;;;;5036796;28;20458;-87
2022/03/26 09:28:12;;;;;;;4.17;1.20;;;17.70;99.90;;;;;;5034293;28;20393;-90
2022/03/26 09:30:39;;;;;;;3.80;1.27;;;17.70;99.90;;;;;;5036794;28;20372;-84
2022/03/26 09:33:07;;;;;;;2.88;1.20;;;17.70;99.90;;;;;;5040505;28;20399;-84
2022/03/26 09:35:38;;;;;;;2.83;1.20;;;17.70;99.90;;;;;;5040371;28;20422;-86
2022/03/26 09:38:05;;;;;;;2.92;1.27;;;17.70;99.90;;;;;;5004425;28;20381;-91
2022/03/26 09:40:36;;;;;;;2.38;1.10;;;17.60;99.90;;;;;;5019460;28;20451;-84
2022/03/26 09:43:05;;;;;;;3.47;1.30;;;17.60;99.90;;;;;;5035504;28;20385;-84
2022/03/26 09:45:33;;;;;;;2.45;1.30;;;17.60;99.90;;;;;;5040404;28;20389;-87
2022/03/26 09:48:00;;;;;;;4.10;1.40;;;17.60;99.90;;;;;;5038938;28;20388;-87
2022/03/26 09:50:29;;;;;;;3.15;1.20;;;17.60;99.90;;;;;;5037857;28;20465;-90
2022/03/26 09:52:57;;;;;;;3.22;1.20;;;17.60;99.90;;;;;;5034792;28;20412;-86
2022/03/26 09:55:24;;;;;;;3.70;1.30;;;17.50;99.90;;;;;;5030173;28;20381;-86
2022/03/26 09:57:52;;;;;;;3.53;1.30;;;17.50;99.90;;;;;;5030738;28;20393;-82
2022/03/26 10:00:19;;;;;;;3.80;1.42;;;18.40;99.90;;;;;;5029511;28;20381;-86
2022/03/26 10:02:46;;;;;;;3.60;1.30;;;17.40;99.90;;;;;;5032514;28;20377;-88
2022/03/26 10:05:18;;;;;;;3.72;1.30;;;17.40;99.90;;;;;;5031961;28;20370;-89
2022/03/26 10:07:48;;;;;;;6.28;3.50;;;17.30;99.90;;;;;;5028352;28;20378;-85
2022/03/26 10:10:25;;;;;;;7.90;4.90;;;17.30;99.90;;;;;;5028501;28;20408;-91
2022/03/26 10:12:53;;;;;;;13.00;7.57;;;17.20;99.90;;;;;;5027316;28;20397;-83
2022/03/26 10:15:20;;;;;;;11.25;3.75;;;17.20;99.90;;;;;;5027865;28;20404;-88
2022/03/26 10:17:48;;;;;;;7.80;2.17;;;17.10;99.90;;;;;;5029597;28;20373;-90
2022/03/26 10:20:16;;;;;;;10.27;1.90;;;17.10;99.90;;;;;;5029900;28;20405;-91
2022/03/26 10:22:48;;;;;;;8.35;1.65;;;17.00;99.90;;;;;;5030570;28;20372;-90
2022/03/26 10:25:22;;;;;;;9.15;1.65;;;16.90;99.90;;;;;;5029798;28;20887;-89
2022/03/26 10:27:56;;;;;;;7.18;1.70;;;16.90;99.90;;;;;;5033204;28;20440;-87
2022/03/26 10:33:21;;;;;;;7.25;1.75;;;16.90;99.90;;;;;;5029590;28;20403;-82
2022/03/26 10:35:58;;;;;;;7.25;1.60;;;16.90;99.90;;;;;;5031494;28;20866;-83
2022/03/26 10:38:33;;;;;;;7.05;1.80;;;16.80;99.90;;;;;;5037654;28;20392;-86
2022/03/26 10:41:02;;;;;;;4.65;1.70;;;16.80;99.90;;;;;;5030932;28;20391;-87
2022/03/26 10:43:30;;;;;;;4.07;1.58;;;17.80;99.90;;;;;;5029503;28;20410;-86
2022/03/26 10:45:59;;;;;;;5.50;1.70;;;16.80;99.90;;;;;;5028740;28;20384;-86
2022/03/26 10:48:26;;;;;;;5.43;1.70;;;16.80;99.90;;;;;;5028642;28;20481;-85
2022/03/26 10:51:22;;;;;;;4.60;1.88;;;16.80;99.90;;;;;;5028899;28;20426;-85
2022/03/26 10:53:54;;;;;;;3.75;1.73;;;16.70;99.90;;;;;;5027860;28;20471;-87
2022/03/26 10:56:22;;;;;;;6.90;2.05;;;16.60;99.90;;;;;;5029107;28;20389;-87
2022/03/26 10:58:49;;;;;;;5.75;2.20;;;16.60;99.90;;;;;;5028667;28;20473;-88
2022/03/26 11:01:16;;;;;;;7.32;2.20;;;16.60;99.90;;;;;;5030143;28;20390;-84
2022/03/26 11:03:43;;;;;;;7.72;2.20;;;16.60;99.90;;;;;;5028683;28;20866;-85
2022/03/26 11:06:15;;;;;;;9.07;2.30;;;16.60;99.90;;;;;;5028148;28;20390;-85
2022/03/26 11:08:43;;;;;;;8.57;2.20;;;16.50;99.90;;;;;;5028450;28;20878;-89
2022/03/26 11:11:12;;;;;;;5.85;1.92;;;16.60;99.90;;;;;;5027612;28;20421;-91
2022/03/26 11:13:48;;;;;;;6.20;1.90;;;16.50;99.90;;;;;;5027918;28;20401;-91
2022/03/26 11:16:35;;;;;;;8.63;2.10;;;16.50;99.90;;;;;;5029025;28;20461;-87
2022/03/26 11:19:38;;;;;;;6.93;2.40;;;16.50;99.90;;;;;;4966588;28;20433;-83
2022/03/26 11:22:26;;;;;;;7.53;2.75;;;16.50;99.90;;;;;;4967264;28;20478;-83
2022/03/26 11:24:53;;;;;;;8.70;2.70;;;16.50;99.90;;;;;;4967490;28;20834;-88
2022/03/26 11:27:47;;;;;;;5.60;2.60;;;16.40;99.90;;;;;;4966440;28;20413;-91
2022/03/26 11:30:41;;;;;;;7.32;2.80;;;16.40;99.90;;;;;;4967411;28;20465;-88
2022/03/26 11:33:13;;;;;;;5.50;3.03;;;16.40;99.90;;;;;;4966808;28;20432;-82
2022/03/26 11:36:03;;;;;;;9.38;3.00;;;16.30;99.90;;;;;;4966956;28;20398;-85
2022/03/26 11:38:32;;;;;;;6.18;2.97;;;16.30;99.90;;;;;;4968180;28;20394;-86
2022/03/26 11:41:06;;;;;;;8.82;3.30;;;16.20;99.90;;;;;;4966961;28;20477;-85
2022/03/26 11:43:45;;;;;;;9.15;3.10;;;16.20;99.90;;;;;;4965603;28;20495;-85
2022/03/26 11:52:21;;;;;;;8.43;3.20;;;16.20;99.90;;;;;;4966268;28;20405;-85
2022/03/26 11:55:09;;;;;;;9.75;3.40;;;16.20;99.90;;;;;;4966351;28;20429;-86
2022/03/26 11:57:36;;;;;;;10.43;3.78;;;16.20;99.90;;;;;;5000174;28;20397;-83
2022/03/26 12:00:15;;;;;;;13.37;4.30;;;16.20;99.90;;;;;;4986038;28;20388;-87
2022/03/26 12:02:53;;;;;;;12.00;4.18;;;16.20;99.90;;;;;;4988476;28;20742;-82
2022/03/26 12:08:16;;;;;;;12.60;3.88;;;16.20;99.90;;;;;;5003243;28;20395;-83
2022/03/26 12:10:45;;;;;;;7.72;3.50;;;16.20;99.90;;;;;;4988974;28;20474;-86
2022/03/26 12:13:22;;;;;;;8.52;3.00;;;16.20;99.90;;;;;;4996177;28;20415;-89
2022/03/26 12:16:00;;;;;;;6.82;2.60;;;16.10;99.90;;;;;;5006246;28;20891;-84
2022/03/26 12:18:37;;;;;;;8.40;2.63;;;16.10;99.90;;;;;;4991590;28;20481;-86
2022/03/26 12:21:24;;;;;;;6.18;2.45;;;16.10;99.90;;;;;;4989963;28;20833;-84
2022/03/26 12:23:55;;;;;;;7.40;2.47;;;16.10;99.90;;;;;;5002209;28;20383;-81
2022/03/26 12:26:22;;;;;;;6.40;2.50;;;16.10;99.90;;;;;;4992040;28;20402;-83
2022/03/26 12:28:50;;;;;;;5.55;2.60;;;16.10;99.90;;;;;;4989983;28;20408;-86
2022/03/26 12:31:18;;;;;;;6.97;2.47;;;16.10;99.90;;;;;;4986944;28;20381;-84
2022/03/26 12:33:47;;;;;;;6.00;2.40;;;16.10;99.90;;;;;;4994798;28;20516;-81
2022/03/26 12:36:17;;;;;;;7.13;2.60;;;16.10;99.90;;;;;;5027644;28;20447;-84
2022/03/26 12:38:53;;;;;;;6.50;2.38;;;16.10;99.90;;;;;;5028189;28;20459;-82
2022/03/26 12:41:21;;;;;;;6.43;2.60;;;16.10;99.90;;;;;;5026843;28;20389;-87
2022/03/26 12:43:55;;;;;;;6.47;2.33;;;16.10;99.90;;;;;;5026522;28;20812;-84
2022/03/26 12:46:21;;;;;;;5.07;2.20;;;16.10;99.90;;;;;;5027086;28;20392;-85
2022/03/26 12:48:49;;;;;;;7.57;2.30;;;16.20;99.90;;;;;;5027363;28;20439;-83
2022/03/26 12:51:16;;;;;;;4.72;2.20;;;16.20;99.90;;;;;;5028940;28;20382;-86
2022/03/26 12:53:46;;;;;;;7.43;2.60;;;16.20;99.90;;;;;;5027347;28;20405;-84
2022/03/26 12:56:14;;;;;;;5.20;2.20;;;16.30;99.90;;;;;;5026693;28;20838;-81
2022/03/26 12:59:00;;;;;;;5.40;2.38;;;16.30;99.90;;;;;;5026383;28;20448;-84
2022/03/26 13:01:28;;;;;;;6.68;2.42;;;16.30;99.90;;;;;;5017416;28;20385;-88
2022/03/26 13:03:55;;;;;;;5.35;2.35;;;16.30;99.90;;;;;;5026504;28;20393;-83
2022/03/26 13:06:24;;;;;;;7.25;2.53;;;16.30;99.90;;;;;;5031400;28;20388;-81
2022/03/26 13:08:53;;;;;;;5.32;2.13;;;16.30;99.90;;;;;;5030445;28;20904;-82
2022/03/26 13:11:23;;;;;;;7.32;2.30;;;16.40;99.90;;;;;;5030223;28;20389;-81